Time;durP1;ratioP1;P1;durP2;ratioP2;P2;SDS_P1;SDS_P2;PMS_P1;PMS_P2;Temp;Humidity;BMP_temperature;BMP_pressure;BME280_temperature;BME280_humidity;BME280_pressure;Samples;Min_cycle;Max_cycle;Signal;HPM_P1;HPM_P2
2022/01/27 02:56:27;;;;;;;28.38;13.90;;;;;;;1.83;88.33;100817.56;5033439;28;20087;-89
2022/01/27 02:58:52;;;;;;;28.83;13.35;;;;;;;1.84;88.26;100809.75;5031391;28;20115;-88
2022/01/27 03:01:19;;;;;;;27.70;13.18;;;;;;;1.84;88.09;100811.50;5031043;28;20029;-89
2022/01/27 03:03:50;;;;;;;34.92;13.98;;;;;;;1.83;88.53;100808.06;5032395;28;20066;-87
2022/01/27 03:06:16;;;;;;;40.13;14.77;;;;;;;1.86;88.33;100794.22;5036974;28;20065;-89
2022/01/27 03:08:41;;;;;;;30.25;13.18;;;;;;;1.84;88.49;100796.00;5045694;28;20346;-89
2022/01/27 03:11:12;;;;;;;28.63;12.38;;;;;;;1.83;88.46;100809.81;5052074;28;20049;-89
2022/01/27 03:13:40;;;;;;;33.85;13.68;;;;;;;1.81;88.24;100794.31;5044777;28;20086;-89
2022/01/27 03:16:07;;;;;;;31.48;13.57;;;;;;;1.79;88.96;100777.16;5053234;28;20052;-88
2022/01/27 03:18:33;;;;;;;27.48;12.50;;;;;;;1.77;88.85;100789.25;5054114;28;20021;-88
2022/01/27 03:20:58;;;;;;;29.88;13.68;;;;;;;1.76;89.26;100782.41;5053507;28;20099;-90
2022/01/27 03:23:28;;;;;;;34.92;12.18;;;;;;;1.69;88.82;100774.75;5055460;28;20037;-89
2022/01/27 03:25:57;;;;;;;31.42;13.10;;;;;;;1.71;89.23;100777.34;5052770;28;20040;-88
2022/01/27 03:28:26;;;;;;;31.73;12.65;;;;;;;1.71;89.00;100756.66;5042905;28;20037;-89
2022/01/27 03:30:51;;;;;;;31.23;13.38;;;;;;;1.72;88.87;100752.34;5052033;28;20025;-88
2022/01/27 03:33:17;;;;;;;28.83;12.45;;;;;;;1.74;88.89;100758.31;5052105;28;20029;-88
2022/01/27 03:35:42;;;;;;;34.47;14.40;;;;;;;1.72;89.16;100752.34;5050879;28;20052;-89
2022/01/27 03:38:08;;;;;;;31.52;12.70;;;;;;;1.71;88.85;100754.06;5052428;28;20428;-89
2022/01/27 03:40:34;;;;;;;37.70;14.30;;;;;;;1.73;88.96;100754.03;5051317;28;20029;-89
2022/01/27 03:43:06;;;;;;;31.55;12.93;;;;;;;1.71;88.74;100769.59;5051618;28;20420;-89
2022/01/27 03:45:32;;;;;;;30.52;13.55;;;;;;;1.73;88.76;100754.03;5052140;28;20027;-89
2022/01/27 03:47:59;;;;;;;32.22;12.65;;;;;;;1.73;88.42;100770.38;5053035;28;20127;-87
2022/01/27 03:50:24;;;;;;;31.45;12.70;;;;;;;1.72;88.54;100754.91;5051669;28;20389;-88
2022/01/27 03:52:50;;;;;;;25.40;12.27;;;;;;;1.75;88.32;100742.78;5061185;28;20033;-89
2022/01/27 03:55:16;;;;;;;28.77;12.07;;;;;;;1.73;88.41;100734.19;5053452;28;20033;-87
2022/01/27 03:57:42;;;;;;;29.67;13.52;;;;;;;1.72;88.38;100731.66;5053073;28;20083;-87
2022/01/27 04:00:08;;;;;;;30.48;12.95;;;;;;;1.72;88.54;100735.09;5050677;28;20033;-88
2022/01/27 04:02:50;;;;;;;30.08;13.68;;;;;;;1.72;88.81;100729.06;5051417;28;20385;-88
2022/01/27 04:05:18;;;;;;;25.33;12.30;;;;;;;1.74;88.85;100724.69;5051804;28;20071;-88
2022/01/27 04:07:44;;;;;;;31.33;13.32;;;;;;;1.75;88.48;100722.09;5052734;28;20056;-88
2022/01/27 04:10:10;;;;;;;31.90;14.25;;;;;;;1.74;88.33;100719.53;5051740;28;20061;-89
2022/01/27 04:12:35;;;;;;;27.52;12.45;;;;;;;1.70;88.23;100698.91;5052852;28;20056;-87
2022/01/27 04:15:01;;;;;;;30.73;12.55;;;;;;;1.71;88.25;100686.88;5052465;28;20037;-88
2022/01/27 04:17:29;;;;;;;28.88;12.82;;;;;;;1.73;87.70;100684.22;5051848;28;20461;-88
2022/01/27 04:19:54;;;;;;;27.23;12.52;;;;;;;1.70;87.48;100687.72;5049895;28;20457;-88
2022/01/27 04:22:19;;;;;;;29.63;12.70;;;;;;;1.71;87.62;100679.09;5042078;28;20120;-89
2022/01/27 04:24:47;;;;;;;30.73;13.02;;;;;;;1.72;87.46;100682.53;5054045;28;20021;-88
2022/01/27 04:27:19;;;;;;;27.48;11.88;;;;;;;1.73;87.32;100674.72;5053444;28;20061;-89
2022/01/27 04:29:45;;;;;;;25.90;12.30;;;;;;;1.75;86.90;100674.72;5042044;28;20040;-89
2022/01/27 04:32:47;;;;;;;;;;;;;;;;;;;;;
2022/01/27 04:35:19;;;;;;;27.45;11.52;;;;;;;1.73;87.22;100650.63;5053772;28;20124;-88
2022/01/27 04:43:12;;;;;;;29.48;12.35;;;;;;;1.69;86.69;100655.88;5054828;28;20072;-88
2022/01/27 04:46:00;;;;;;;27.48;11.60;;;;;;;1.69;86.52;100642.09;5053598;28;20021;-89
2022/01/27 04:48:30;;;;;;;28.02;13.13;;;;;;;1.70;85.44;100636.03;5053161;28;20076;-89
2022/01/27 04:51:07;;;;;;;;;;;;;;;;;;;;;
2022/01/27 04:53:53;;;;;;;23.67;11.55;;;;;;;1.69;85.08;100658.44;5056098;28;20124;-88
2022/01/27 04:56:21;;;;;;;23.38;11.40;;;;;;;1.71;84.83;100668.78;5046119;28;20037;-88
2022/01/27 04:58:58;;;;;;;26.58;12.50;;;;;;;1.72;84.88;100664.44;5045955;28;20048;-88
2022/01/27 05:01:31;;;;;;;28.88;12.43;;;;;;;1.70;84.57;100675.66;5046656;28;20146;-90
2022/01/27 05:04:02;;;;;;;34.25;13.43;;;;;;;1.74;84.77;100673.00;5045598;28;20025;-89
2022/01/27 05:06:28;;;;;;;31.27;12.88;;;;;;;1.76;84.90;100666.91;5055465;28;20095;-89
2022/01/27 05:08:55;;;;;;;27.30;13.25;;;;;;;1.74;84.84;100673.84;5055232;28;20033;-90
2022/01/27 05:11:30;;;;;;;25.77;12.13;;;;;;;1.72;85.14;100657.53;5059540;28;20053;-89
2022/01/27 05:14:08;;;;;;;32.08;13.30;;;;;;;1.71;84.79;100650.69;5060671;28;20091;-88
2022/01/27 05:16:33;;;;;;;28.20;13.88;;;;;;;1.70;84.39;100657.56;5058587;28;20033;-88
2022/01/27 05:19:18;;;;;;;33.08;13.52;;;;;;;1.69;84.62;100658.44;5052901;28;20430;-87
2022/01/27 05:21:46;;;;;;;27.73;13.02;;;;;;;1.73;84.96;100654.06;5054944;28;20017;-88
2022/01/27 05:24:12;;;;;;;32.05;13.85;;;;;;;1.67;84.53;100649.06;5055869;28;20052;-88
2022/01/27 05:26:38;;;;;;;28.25;13.90;;;;;;;1.73;84.67;100648.03;5055074;28;20036;-88
2022/01/27 05:29:09;;;;;;;26.80;13.60;;;;;;;1.72;84.24;100643.75;5048145;28;20047;-90
2022/01/27 05:31:38;;;;;;;33.35;13.45;;;;;;;1.68;84.24;100643.00;5069188;28;20059;-91
2022/01/27 05:34:04;;;;;;;;;;;;;;;1.68;84.15;100630.91;5069198;28;20044;-90
2022/01/27 05:36:34;;;;;;;24.10;11.63;;;;;;;1.64;84.28;100637.03;5070949;28;19909;-91
2022/01/27 05:39:01;;;;;;;30.20;12.95;;;;;;;1.67;84.05;100621.47;5059243;28;20044;-90
2022/01/27 05:41:27;;;;;;;30.67;13.45;;;;;;;1.68;84.08;100624.91;5069461;28;20099;-90
2022/01/27 05:43:52;;;;;;;26.63;13.18;;;;;;;1.69;83.73;100617.09;5070148;28;20033;-89
2022/01/27 05:46:20;;;;;;;27.80;13.20;;;;;;;1.69;83.89;100626.59;5063282;28;20037;-88
2022/01/27 05:48:48;;;;;;;26.48;14.05;;;;;;;1.66;83.65;100618.91;5064659;28;20033;-87
2022/01/27 05:51:15;;;;;;;25.67;12.90;;;;;;;1.64;83.54;100600.88;5064458;28;20045;-88
2022/01/27 05:53:41;;;;;;;27.13;12.00;;;;;;;1.62;83.24;100592.28;5054477;28;20037;-89
2022/01/27 05:56:10;;;;;;;24.60;13.27;;;;;;;1.60;83.45;100588.06;5060145;28;20048;-87
2022/01/27 05:58:37;;;;;;;21.00;12.02;;;;;;;1.61;82.91;100621.59;5058526;28;20036;-89
2022/01/27 06:01:11;;;;;;;25.75;12.82;;;;;;;1.62;82.76;100620.72;5058555;28;20404;-87
2022/01/27 06:03:40;;;;;;;26.45;12.68;;;;;;;1.64;82.34;100616.38;5061642;28;20021;-92
2022/01/27 06:06:08;;;;;;;25.55;11.35;;;;;;;1.64;82.22;100636.19;5053157;28;20036;-89
2022/01/27 06:08:37;;;;;;;21.23;10.90;;;;;;;1.64;82.31;100649.97;5056136;28;20397;-90
2022/01/27 06:11:03;;;;;;;20.42;11.15;;;;;;;1.65;81.87;100599.13;5056077;28;20029;-87
2022/01/27 06:13:31;;;;;;;22.10;11.75;;;;;;;1.67;82.20;100603.38;5054478;28;20098;-87
2022/01/27 06:15:59;;;;;;;20.35;11.02;;;;;;;1.67;81.67;100597.34;5055155;28;20464;-88
2022/01/27 06:18:27;;;;;;;23.30;12.18;;;;;;;1.67;81.88;100605.97;5055534;28;20044;-88
2022/01/27 06:20:55;;;;;;;20.85;11.27;;;;;;;1.69;81.58;100609.34;5054348;28;20040;-87
2022/01/27 06:23:20;;;;;;;27.83;12.07;;;;;;;1.66;81.54;100593.06;5042169;28;20366;-88
2022/01/27 06:25:46;;;;;;;22.85;11.63;;;;;;;1.67;81.90;100592.19;5056206;28;20099;-88
2022/01/27 06:28:14;;;;;;;23.13;11.68;;;;;;;1.69;81.50;100592.97;5053768;28;20036;-89
2022/01/27 06:30:40;;;;;;;23.10;12.02;;;;;;;1.68;81.22;100597.31;5054787;28;20056;-89
2022/01/27 06:33:06;;;;;;;25.13;12.55;;;;;;;1.67;80.93;100587.88;5053169;28;20041;-91
2022/01/27 06:35:32;;;;;;;20.75;11.48;;;;;;;1.68;80.73;100589.56;5054567;28;20045;-89
2022/01/27 06:37:58;;;;;;;25.48;12.07;;;;;;;1.67;80.69;100580.13;5054393;28;20124;-89
2022/01/27 06:40:24;;;;;;;24.23;11.55;;;;;;;1.71;80.83;100588.63;5056793;28;20029;-90
2022/01/27 06:42:49;;;;;;;27.52;10.85;;;;;;;1.67;80.96;100595.63;5056395;28;20035;-90
2022/01/27 06:45:15;;;;;;;25.50;12.77;;;;;;;1.72;80.79;100607.56;5049070;28;20485;-88
2022/01/27 06:47:41;;;;;;;21.20;11.65;;;;;;;1.72;80.98;100589.47;5049058;28;20041;-88
2022/01/27 06:50:09;;;;;;;27.35;12.40;;;;;;;1.74;80.36;100585.09;5052383;28;20061;-88
2022/01/27 06:52:38;;;;;;;27.73;12.35;;;;;;;1.73;80.70;100580.84;5055213;28;20074;-90
2022/01/27 06:55:05;;;;;;;25.52;12.57;;;;;;;1.72;80.52;100579.97;5054327;28;20029;-88
2022/01/27 06:57:33;;;;;;;23.98;12.45;;;;;;;1.72;80.80;100563.63;5055020;28;20093;-88
2022/01/27 06:59:59;;;;;;;21.65;11.75;;;;;;;1.72;80.26;100566.22;5049520;28;20055;-90
2022/01/27 07:02:30;;;;;;;23.80;12.45;;;;;;;1.70;80.53;100580.00;5043218;28;20040;-87
2022/01/27 07:04:56;;;;;;;25.08;13.18;;;;;;;1.70;80.59;100569.66;5051275;28;20037;-86
2022/01/27 07:07:23;;;;;;;21.98;12.80;;;;;;;1.68;80.45;100565.44;5057404;28;20021;-88
2022/01/27 07:09:52;;;;;;;28.17;13.25;;;;;;;1.67;80.81;100561.19;5059201;28;20080;-88
2022/01/27 07:12:17;;;;;;;24.58;12.30;;;;;;;1.66;80.93;100555.13;5057514;28;20041;-88
2022/01/27 07:14:43;;;;;;;25.17;11.52;;;;;;;1.69;80.81;100547.31;5061027;28;20578;-88
2022/01/27 07:17:08;;;;;;;23.10;11.05;;;;;;;1.68;80.45;100540.44;5059226;28;20063;-91
2022/01/27 07:19:34;;;;;;;23.70;11.88;;;;;;;1.72;80.62;100536.03;5051902;28;20028;-89
2022/01/27 07:22:00;;;;;;;24.50;12.52;;;;;;;1.68;80.99;100532.69;5054624;28;20036;-88
2022/01/27 07:24:25;;;;;;;21.00;10.45;;;;;;;1.69;80.75;100541.28;5056550;28;20051;-88
2022/01/27 07:26:51;;;;;;;24.55;11.73;;;;;;;1.66;80.59;100569.78;5055848;28;20098;-88
2022/01/27 07:29:17;;;;;;;23.45;10.32;;;;;;;1.64;80.44;100525.91;5037056;28;20060;-88
2022/01/27 07:31:52;;;;;;;25.83;11.90;;;;;;;1.66;80.27;100518.94;5044889;28;20033;-89
2022/01/27 07:34:33;;;;;;;21.35;10.82;;;;;;;1.65;80.59;100514.69;5049310;28;20056;-89
2022/01/27 07:37:08;;;;;;;22.67;11.05;;;;;;;1.65;79.97;100511.25;5050569;28;20027;-90
2022/01/27 07:39:42;;;;;;;19.30;10.45;;;;;;;1.67;79.83;100496.56;5055268;28;20380;-89
2022/01/27 07:42:08;;;;;;;23.40;11.43;;;;;;;1.68;80.14;100512.00;5053686;28;20075;-89
2022/01/27 07:45:14;;;;;;;20.88;11.13;;;;;;;1.70;80.07;100507.63;5044177;28;20132;-89
2022/01/27 07:47:42;;;;;;;21.10;10.80;;;;;;;1.72;79.94;100520.53;5042799;28;20116;-89
2022/01/27 07:50:09;;;;;;;28.75;12.45;;;;;;;1.74;79.38;100504.97;5028487;28;20033;-89
2022/01/27 07:52:43;;;;;;;25.23;11.00;;;;;;;1.75;79.65;100528.22;5050815;28;20029;-88
2022/01/27 07:55:15;;;;;;;24.33;12.23;;;;;;;1.76;79.68;100521.31;5058836;28;25583;-89
2022/01/27 07:57:46;;;;;;;28.60;12.93;;;;;;;1.71;79.95;100518.84;5054784;28;20033;-88
2022/01/27 08:00:33;;;;;;;29.55;12.77;;;;;;;1.78;79.51;100528.13;5065000;28;20178;-88
2022/01/27 08:03:04;;;;;;;26.65;11.75;;;;;;;1.76;79.07;100536.81;5063898;28;20048;-90
2022/01/27 08:05:32;;;;;;;28.25;13.60;;;;;;;1.77;79.14;100533.31;5055473;28;20142;-88
2022/01/27 08:08:06;;;;;;;22.38;11.60;;;;;;;1.77;78.93;100518.66;5066001;28;20041;-90
2022/01/27 08:10:44;;;;;;;24.23;13.30;;;;;;;1.77;79.24;100526.41;5043359;28;20048;-89
2022/01/27 08:13:12;;;;;;;26.63;12.50;;;;;;;1.78;78.97;100514.34;5028086;28;20357;-89
2022/01/27 08:15:44;;;;;;;25.15;11.95;;;;;;;1.80;79.04;100504.81;5053225;28;20028;-89
2022/01/27 08:18:10;;;;;;;24.02;13.15;;;;;;;1.84;78.90;100509.00;5035491;28;20049;-87
2022/01/27 08:20:37;;;;;;;31.25;13.15;;;;;;;1.86;78.43;100508.09;5053021;28;20048;-88
2022/01/27 08:23:06;;;;;;;22.98;12.02;;;;;;;1.85;78.46;100510.69;5054266;28;20057;-87
2022/01/27 08:25:33;;;;;;;29.20;12.38;;;;;;;1.85;78.88;100502.94;5054315;28;20029;-88
2022/01/27 08:28:02;;;;;;;27.77;12.38;;;;;;;1.87;78.35;100498.59;5044572;28;20103;-88
2022/01/27 08:30:34;;;;;;;26.55;12.10;;;;;;;1.85;78.03;100497.78;5052129;28;20458;-87
2022/01/27 08:33:12;;;;;;;24.63;12.88;;;;;;;1.88;78.06;100484.75;5036717;28;20477;-89
2022/01/27 08:35:40;;;;;;;25.33;12.30;;;;;;;1.85;78.51;100498.59;5050209;28;20116;-88
2022/01/27 08:38:06;;;;;;;31.95;14.27;;;;;;;1.90;78.65;100488.16;5037194;28;20045;-89
2022/01/27 08:40:34;;;;;;;28.92;13.45;;;;;;;1.94;78.09;100467.34;5039328;28;20512;-90
2022/01/27 08:43:00;;;;;;;28.85;12.93;;;;;;;2.07;77.39;100470.41;5044174;28;20526;-87
2022/01/27 08:45:28;;;;;;;22.73;11.95;;;;;;;2.10;77.27;100485.00;5046158;28;20025;-88
2022/01/27 08:48:03;;;;;;;28.33;12.75;;;;;;;2.08;77.45;100466.97;5050392;28;20131;-88
2022/01/27 08:50:29;;;;;;;26.35;13.02;;;;;;;2.13;77.47;100469.41;5050815;28;20033;-86
2022/01/27 08:52:55;;;;;;;27.40;13.18;;;;;;;2.19;76.58;100495.09;5055480;28;20113;-87
2022/01/27 08:55:21;;;;;;;24.67;13.50;;;;;;;2.16;76.94;100474.50;5051110;28;20033;-88
2022/01/27 08:58:04;;;;;;;27.70;12.90;;;;;;;2.06;76.24;100471.31;5057294;28;20311;-87
2022/01/27 09:00:30;;;;;;;30.75;12.93;;;;;;;2.05;76.31;100467.03;5064905;28;20411;-87
2022/01/27 09:02:56;;;;;;;27.52;12.82;;;;;;;2.00;76.36;100457.69;5057126;28;20120;-88
2022/01/27 09:05:22;;;;;;;27.63;13.68;;;;;;;2.00;76.67;100474.06;5056192;28;20132;-87
2022/01/27 09:07:48;;;;;;;25.77;12.20;;;;;;;2.01;76.69;100465.44;5053752;28;20048;-89
2022/01/27 09:10:15;;;;;;;27.73;13.63;;;;;;;2.00;76.70;100434.44;5046049;28;20461;-88
2022/01/27 09:12:41;;;;;;;26.67;12.88;;;;;;;1.99;76.31;100441.34;5036529;28;20076;-87
2022/01/27 09:15:14;;;;;;;26.92;13.35;;;;;;;2.04;76.82;100447.25;5034632;28;20057;-88
2022/01/27 09:17:48;;;;;;;28.42;12.55;;;;;;;2.05;76.31;100446.34;5039514;28;20061;-88
2022/01/27 09:20:16;;;;;;;27.35;13.10;;;;;;;2.06;76.73;100453.19;5060637;28;20033;-89
2022/01/27 09:23:13;;;;;;;29.20;13.30;;;;;;;2.10;76.50;100441.03;5057517;28;20102;-89
2022/01/27 09:25:48;;;;;;;27.23;13.25;;;;;;;2.11;76.58;100461.69;5067733;28;20044;-90
2022/01/27 09:28:15;;;;;;;30.65;13.43;;;;;;;2.08;76.28;100435.06;5068517;28;20063;-88
2022/01/27 09:30:50;;;;;;;38.22;14.45;;;;;;;2.17;76.15;100456.31;5071719;28;20124;-89
2022/01/27 09:33:36;;;;;;;28.15;14.00;;;;;;;2.13;76.88;100451.28;5070711;28;20089;-89
2022/01/27 09:36:11;;;;;;;29.83;13.32;;;;;;;2.15;76.75;100463.31;5063758;28;20092;-89
2022/01/27 09:38:38;;;;;;;33.95;12.60;;;;;;;2.15;76.55;100460.72;5066037;28;20036;-89
2022/01/27 09:41:13;;;;;;;28.80;14.15;;;;;;;2.16;76.07;100462.41;5068444;28;20053;-89
2022/01/27 09:43:39;;;;;;;26.30;12.95;;;;;;;2.16;76.01;100448.63;5072421;28;20032;-89
2022/01/27 09:46:12;;;;;;;30.35;13.77;;;;;;;2.14;76.26;100440.88;5072255;28;20022;-87
2022/01/27 09:48:43;;;;;;;29.73;14.43;;;;;;;2.22;76.55;100450.16;5070358;28;20021;-89
2022/01/27 09:53:56;;;;;;;30.73;13.48;;;;;;;2.22;76.40;100450.16;5071691;28;20029;-88
2022/01/27 09:56:29;;;;;;;31.98;13.20;;;;;;;2.22;75.84;100445.84;5067179;28;20032;-88
2022/01/27 09:59:01;;;;;;;31.25;14.20;;;;;;;2.18;76.01;100449.41;5048724;28;20033;-90
2022/01/27 10:01:28;;;;;;;34.60;14.43;;;;;;;2.23;75.57;100442.38;5022149;28;20029;-89
2022/01/27 10:03:58;;;;;;;29.35;13.90;;;;;;;2.23;75.45;100438.94;5066579;28;20074;-90
2022/01/27 10:06:29;;;;;;;29.08;13.82;;;;;;;2.24;75.61;100435.44;5051494;28;20100;-88
2022/01/27 10:09:25;;;;;;;26.40;12.77;;;;;;;2.32;75.93;100443.81;5053568;28;20045;-88
2022/01/27 10:12:02;;;;;;;35.05;14.18;;;;;;;2.31;75.84;100427.47;5029297;28;20132;-88
2022/01/27 10:14:49;;;;;;;;;;;;;;;;;;;;;
2022/01/27 10:20:23;;;;;;;;;;;;;;;;;;;;;
2022/01/27 10:23:14;;;;;;;31.42;14.18;;;;;;;2.45;75.67;100413.22;5043652;28;20155;-87
2022/01/27 10:25:50;;;;;;;31.48;13.60;;;;;;;2.46;76.19;100412.34;5028105;28;20029;-85
2022/01/27 10:28:36;;;;;;;31.70;14.48;;;;;;;2.51;76.02;100406.13;5044931;28;20036;-87
2022/01/27 10:31:08;;;;;;;33.05;13.93;;;;;;;2.58;76.04;100404.19;5057974;28;20033;-88
2022/01/27 10:34:02;;;;;;;28.67;12.82;;;;;;;2.59;75.87;100398.09;5042730;28;20048;-89
2022/01/27 10:36:40;;;;;;;34.10;13.30;;;;;;;2.58;76.24;100392.09;5040981;28;20104;-88
2022/01/27 10:39:34;;;;;;;29.67;13.85;;;;;;;2.58;76.13;100394.69;5043785;28;20037;-87
2022/01/27 10:42:10;;;;;;;26.63;13.35;;;;;;;2.64;76.16;100384.13;5054339;28;20123;-89
2022/01/27 10:44:54;;;;;;;24.77;12.43;;;;;;;2.62;76.13;100398.00;5052974;28;20060;-88
2022/01/27 10:47:26;;;;;;;33.90;13.88;;;;;;;2.66;76.55;100382.31;5052069;28;20044;-87
2022/01/27 10:50:02;;;;;;;35.15;14.32;;;;;;;2.67;76.70;100391.81;5046008;28;20036;-88
2022/01/27 10:52:42;;;;;;;25.30;12.27;;;;;;;2.67;76.49;100367.66;5041840;28;20032;-88
2022/01/27 10:55:20;;;;;;;31.30;12.88;;;;;;;2.70;76.63;100358.94;5034767;28;20021;-91
2022/01/27 10:57:52;;;;;;;33.70;14.27;;;;;;;2.71;76.87;100364.06;5038547;28;20018;-87
2022/01/27 11:00:19;;;;;;;32.45;13.15;;;;;;;2.74;76.99;100373.47;5041897;28;20167;-90
2022/01/27 11:03:12;;;;;;;27.08;11.77;;;;;;;2.76;77.09;100363.91;5057330;28;20178;-91
2022/01/27 11:05:50;;;;;;;31.88;13.23;;;;;;;2.80;76.34;100349.97;5049710;28;20044;-91
2022/01/27 11:08:19;;;;;;;30.15;12.80;;;;;;;2.83;77.10;100344.69;5057523;28;20389;-89
2022/01/27 11:10:48;;;;;;;28.40;13.45;;;;;;;2.87;77.01;100348.84;5062874;28;20032;-89
2022/01/27 11:13:15;;;;;;;28.23;12.93;;;;;;;2.91;77.34;100351.28;5072636;28;20056;-90
2022/01/27 11:15:44;;;;;;;29.40;13.02;;;;;;;2.97;77.05;100350.25;5045011;28;20108;-91
2022/01/27 11:18:12;;;;;;;;;;;;;;;3.06;76.90;100343.88;5043119;28;20063;-89
2022/01/27 11:20:50;;;;;;;28.95;12.52;;;;;;;3.02;76.75;100340.56;5047644;28;19913;-91
2022/01/27 11:26:07;;;;;;;29.27;13.68;;;;;;;3.09;77.28;100321.31;5054126;28;20029;-90
2022/01/27 11:28:33;;;;;;;28.00;13.05;;;;;;;3.07;77.42;100342.97;5064839;28;20069;-87
2022/01/27 11:31:17;;;;;;;36.80;13.93;;;;;;;3.08;77.80;100329.16;5049972;28;20032;-89
2022/01/27 11:34:00;;;;;;;28.35;13.82;;;;;;;3.09;78.02;100320.47;5061017;28;20025;-91
2022/01/27 11:36:26;;;;;;;29.40;12.90;;;;;;;3.11;78.14;100345.41;5059501;28;20025;-90
2022/01/27 11:38:52;;;;;;;28.30;12.57;;;;;;;3.17;78.44;100318.44;5057503;28;20039;-87
2022/01/27 11:41:38;;;;;;;29.05;12.95;;;;;;;3.17;78.30;100334.00;5057216;28;20045;-91
2022/01/27 11:44:32;;;;;;;27.73;12.93;;;;;;;3.23;78.42;100323.41;5048097;28;20118;-89
2022/01/27 11:47:19;;;;;;;28.85;12.57;;;;;;;3.23;78.63;100310.47;5058482;28;20051;-91
2022/01/27 11:50:18;;;;;;;27.13;11.73;;;;;;;3.24;78.81;100291.41;5049766;28;20044;-92
2022/01/27 11:52:56;;;;;;;32.33;12.93;;;;;;;3.29;78.52;100302.44;5057758;28;20106;-92
2022/01/27 11:55:24;;;;;;;29.65;13.00;;;;;;;3.35;79.16;100299.63;5027641;28;20097;-87
2022/01/27 11:57:58;;;;;;;33.47;12.67;;;;;;;3.39;78.73;100284.81;5049207;28;20053;-90
2022/01/27 12:00:26;;;;;;;31.02;13.40;;;;;;;3.38;79.15;100289.16;5052053;28;20092;-88
2022/01/27 12:03:01;;;;;;;28.13;13.00;;;;;;;3.43;79.26;100295.91;5054519;28;20037;-89
2022/01/27 12:05:32;;;;;;;27.85;12.48;;;;;;;3.46;79.33;100294.06;5044366;28;20075;-88
2022/01/27 12:08:27;;;;;;;27.20;11.80;;;;;;;3.48;79.56;100284.47;5043680;28;20033;-89
2022/01/27 12:13:49;;;;;;;28.15;12.57;;;;;;;3.52;79.98;100291.25;5053431;28;20090;-90
2022/01/27 12:19:08;;;;;;;29.17;13.52;;;;;;;3.56;80.49;100276.38;5045932;28;20159;-89
2022/01/27 12:22:00;;;;;;;30.08;13.32;;;;;;;3.57;80.80;100267.72;5053111;28;20040;-90
2022/01/27 12:24:32;;;;;;;27.30;12.20;;;;;;;3.61;80.69;100279.66;5052040;28;20110;-90
2022/01/27 12:27:16;;;;;;;26.85;12.32;;;;;;;3.63;80.65;100264.88;5052983;28;20033;-89
2022/01/27 12:29:47;;;;;;;28.73;12.77;;;;;;;3.66;80.72;100264.75;5052436;28;20056;-90
2022/01/27 12:32:15;;;;;;;29.30;12.52;;;;;;;3.68;80.45;100264.72;5056627;28;20051;-90
2022/01/27 12:34:46;;;;;;;33.45;13.50;;;;;;;3.69;80.06;100269.00;5055439;28;20439;-89
2022/01/27 12:37:20;;;;;;;26.83;11.50;;;;;;;3.72;80.33;100267.13;5056742;28;20529;-88
2022/01/27 12:39:57;;;;;;;28.00;11.93;;;;;;;3.74;80.54;100252.34;5054948;28;20033;-91
2022/01/27 12:42:32;;;;;;;28.20;12.88;;;;;;;3.77;80.44;100249.63;5037621;28;20072;-88
2022/01/27 12:45:09;;;;;;;24.15;12.30;;;;;;;3.77;80.67;100238.41;5052326;28;20105;-88
2022/01/27 12:47:40;;;;;;;25.67;11.57;;;;;;;3.80;80.66;100227.94;5054855;28;20056;-89
2022/01/27 12:50:10;;;;;;;29.77;11.70;;;;;;;3.82;80.66;100237.34;5056622;28;20033;-88
2022/01/27 12:53:03;;;;;;;29.13;12.35;;;;;;;3.82;81.04;100226.97;5050213;28;20033;-88
2022/01/27 12:55:36;;;;;;;25.23;11.63;;;;;;;3.84;80.75;100232.91;5059555;28;20113;-88
2022/01/27 12:58:13;;;;;;;26.75;11.63;;;;;;;3.85;80.92;100252.75;5048236;28;20466;-89
2022/01/27 13:00:48;;;;;;;25.92;11.57;;;;;;;3.86;81.04;100245.84;5057803;28;20092;-91
2022/01/27 13:03:14;;;;;;;23.85;11.55;;;;;;;3.90;81.45;100236.19;5056206;28;20033;-90
2022/01/27 13:05:49;;;;;;;28.75;12.48;;;;;;;3.96;81.34;100233.34;5055507;28;20755;-88
2022/01/27 13:08:17;;;;;;;22.05;11.25;;;;;;;4.02;80.99;100217.53;5055401;28;20029;-89
2022/01/27 13:10:51;;;;;;;31.83;12.25;;;;;;;3.99;81.34;100239.25;5056680;28;20037;-88
2022/01/27 13:13:24;;;;;;;28.33;11.63;;;;;;;4.02;81.63;100233.94;5058677;28;20036;-89
2022/01/27 13:16:07;;;;;;;26.50;11.43;;;;;;;4.02;81.90;100227.91;5058232;28;20017;-87
2022/01/27 13:18:47;;;;;;;24.65;11.30;;;;;;;4.03;82.34;100214.84;5056255;28;20476;-89
2022/01/27 13:21:37;;;;;;;23.50;11.60;;;;;;;4.02;82.41;100213.19;5055698;28;20044;-90
2022/01/27 13:24:15;;;;;;;30.88;11.85;;;;;;;4.08;82.68;100212.09;5056643;28;20144;-88
2022/01/27 13:26:44;;;;;;;25.20;12.07;;;;;;;4.10;82.41;100200.72;5056181;28;20063;-88
2022/01/27 13:29:14;;;;;;;23.05;11.00;;;;;;;4.14;82.39;100196.25;5055931;28;20059;-90
2022/01/27 13:31:40;;;;;;;21.63;10.63;;;;;;;4.15;82.32;100197.09;5057524;28;20136;-88
2022/01/27 13:34:08;;;;;;;30.08;11.27;;;;;;;4.18;82.92;100200.41;5056925;28;20069;-90
2022/01/27 13:36:37;;;;;;;24.70;10.53;;;;;;;4.22;82.37;100195.94;5056664;28;20094;-91
2022/01/27 13:41:45;;;;;;;23.77;11.65;;;;;;;4.28;82.48;100208.66;5056695;28;20033;-89
2022/01/27 13:44:14;;;;;;;22.23;10.15;;;;;;;4.31;82.39;100186.00;5055735;28;20056;-90
2022/01/27 13:46:46;;;;;;;26.13;10.77;;;;;;;4.35;82.34;100181.53;5056174;28;20060;-89
2022/01/27 13:49:26;;;;;;;21.02;10.23;;;;;;;4.42;82.32;100175.16;5057194;28;20052;-88
2022/01/27 13:52:04;;;;;;;21.55;9.70;;;;;;;4.48;82.11;100181.84;5053534;28;20029;-89
2022/01/27 13:54:55;;;;;;;18.98;9.25;;;;;;;4.51;81.91;100168.72;5056168;28;20025;-89
2022/01/27 13:57:25;;;;;;;20.63;8.80;;;;;;;4.57;81.66;100169.31;4996030;28;20138;-89
2022/01/27 14:00:02;;;;;;;22.95;9.77;;;;;;;4.59;81.38;100162.28;5013008;28;20037;-88
2022/01/27 14:02:31;;;;;;;17.58;9.68;;;;;;;4.59;81.17;100167.47;4997583;28;20041;-88
2022/01/27 14:05:00;;;;;;;20.92;9.38;;;;;;;4.59;81.54;100164.03;5012370;28;20555;-89
2022/01/27 14:07:38;;;;;;;18.20;9.00;;;;;;;4.55;81.88;100165.06;5015536;28;20038;-89
2022/01/27 14:10:10;;;;;;;19.63;9.82;;;;;;;4.57;81.91;100171.06;4995528;28;20397;-88
2022/01/27 14:13:17;;;;;;;22.58;9.90;;;;;;;4.52;81.80;100171.25;4998215;28;20038;-88
2022/01/27 14:16:14;;;;;;;18.52;8.68;;;;;;;4.54;81.61;100153.00;4978260;28;20529;-88
2022/01/27 14:18:45;;;;;;;17.63;8.30;;;;;;;4.55;81.89;100172.88;4988881;28;20046;-87
2022/01/27 14:21:21;;;;;;;16.42;8.27;;;;;;;4.54;81.64;100171.19;5014295;28;20077;-89
2022/01/27 14:26:41;;;;;;;20.13;9.55;;;;;;;4.56;81.90;100178.00;5018163;28;20063;-88
2022/01/27 14:29:15;;;;;;;18.20;8.55;;;;;;;4.56;81.51;100159.84;5033448;28;20034;-89
2022/01/27 14:31:47;;;;;;;17.05;8.20;;;;;;;4.58;81.40;100172.75;5027669;28;20153;-88
2022/01/27 14:34:32;;;;;;;21.52;9.05;;;;;;;4.60;81.34;100215.91;5024367;28;20131;-89
2022/01/27 14:36:58;;;;;;;19.23;8.32;;;;;;;4.66;81.51;100170.63;5055688;28;20199;-89
2022/01/27 14:39:24;;;;;;;19.55;8.82;;;;;;;4.64;81.40;100175.06;5073733;28;20485;-90
2022/01/27 14:41:50;;;;;;;19.65;8.15;;;;;;;4.60;81.38;100183.91;5055130;28;20046;-87
2022/01/27 14:44:16;;;;;;;15.07;7.75;;;;;;;4.62;81.40;100182.06;5066547;28;20030;-89
2022/01/27 14:46:45;;;;;;;16.23;7.13;;;;;;;4.63;81.45;100198.50;5061728;28;20665;-87
2022/01/27 14:49:15;;;;;;;15.00;6.72;;;;;;;4.65;81.38;100186.31;5038065;28;20032;-89
2022/01/27 14:51:44;;;;;;;15.35;7.57;;;;;;;4.60;81.59;100184.75;5055020;28;20031;-88
2022/01/27 14:54:14;;;;;;;15.07;7.22;;;;;;;4.57;81.75;100177.09;5055212;28;20044;-87
2022/01/27 14:56:39;;;;;;;14.20;6.85;;;;;;;4.54;81.95;100172.03;5048140;28;20361;-89
2022/01/27 14:59:10;;;;;;;15.57;7.28;;;;;;;4.49;82.04;100155.81;5061726;28;20041;-88
2022/01/27 15:01:46;;;;;;;15.45;7.50;;;;;;;4.67;81.26;100163.69;5063928;28;20025;-87
2022/01/27 15:04:11;;;;;;;14.38;7.47;;;;;;;5.03;79.91;100176.78;5052606;28;20117;-91
2022/01/27 15:06:40;;;;;;;11.13;6.60;;;;;;;5.15;79.28;100150.22;5048568;28;20027;-90